Lloydminster Airport
CYLL : now visible

Airfield :











YOU CAN JOIN US ON...

 
LOGIN :

Register | Disclaimer

   EN    FR    IT 

 









Legend :    VFR   Marginal VFR   IFR   Intensive IFR   Very Intensive IFR
Visi :
Ceiling :
>= 8 km
>= 3000ft
5 to 8 km
1000 to 3000 ft
1500m to 5 km
500 to 1000 ft
800 to 1500m
200 to 500 ft
< 800m
< 200 ft
Symbols :   Thunderstorms  Fog  Heavy snow  Heavy precipitations  Wind > 20 kt






- Airport Elevation : 2193 ft
- IATA code : YLL


CYLL - Lloydminster

CURRENT METAR :
  • 071500Z 27006KT 15SM BKN100 19/13 A2993 RMK AC7 SLP138 DENSITY ALT 3200FT

EXPIRED METARs :
  • 071400Z 25006KT 15SM FEW090 BKN110 17/12 A2992 RMK ACC1AC6 SLP138 DENSITY ALT 3000FT
  • 071300Z 24007KT 15SM BKN090 16/12 A2992 RMK ACC6 SLP137 DENSITY ALT 2900FT
  • 071241Z AUTO 24008KT 9SM OVC091 15/11 A2991 RMK SLP138 DENSITY ALT 2800FT
  • 071215Z AUTO 25009KT 9SM -RA OVC096 15/11 A2992 RMK SLP140 DENSITY ALT 2800FT

TAF TAF CYLL
Valid from the 07 at 12:00 until the 08 at 00:00 UTC


071141Z 0712/0724 26007KT P6SM BKN090
FM071800 28010G20KT P6SM SCT090 RMK FCST BASED ON AUTO OBS. NXT FCST BY 071800Z
CZEG FIR / North America



MET'MAP, your aeronautical weather chart ! - Copyright ORBIFLY December 2007 - Disclaimer

ORBIFLY MET'MAP TEAM :

Programming & Development : Alexandra Zaïnal
Original concept : Baudouin d'Aumeries
Technical & hardware support : Manuel Goepfert
Assistance : Marc-Olivier Méhu




SOURCES & CREDITS :

   NOAA       Earth
Advisory